Barrackville, WV (26559)

1:29 PM EST on February 13, 2016 (GMT -0500)
East Fairmont | | Change Station
CLOSE
Current Station
Personal Weather Station
Location: Fairmont, WV
Elevation: 1004 ft
Nearby Weather Stations

Elev 1004 ft 39.48 °N, 80.13 °W | Updated 3 minutes ago

Overcast
Overcast
18.1 °F
Feels Like 10 °F
N
5.8
Wind Variable Wind from WNW

Today
High -- | Low -- °F
--% Chance of Precip.
Yesterday
High -- | Low -- °F
Precip. -- in
Pressure 30.42 in
Visibility 10.0 miles
Clouds Mostly Cloudy 4200 ft
Overcast 5000 ft
Windchill 10 °F
Dew Point -3 °F
Humidity 39%
Rainfall 0.00 in
Snow Depth Not available.
7:15 AM 5:54 PM
Waxing Crescent, 33% visible
METAR KCKB 131753Z 30013G18KT 10SM BKN042 OVC050 M08/M20 A3037 RMK AO2 SLP299 60000 T10781200 11056 21128 50006
Pressure 30.42 in
Visibility 10.0 miles
Clouds Mostly Cloudy 4200 ft
Overcast 5000 ft
Windchill 10 °F
Dew Point -3 °F
Humidity 39%
Rainfall 0.00 in
Snow Depth Not available.
7:15 AM 5:54 PM
Waxing Crescent, 33% visible
METAR KCKB 131753Z 30013G18KT 10SM BKN042 OVC050 M08/M20 A3037 RMK AO2 SLP299 60000 T10781200 11056 21128 50006

10-Day Weather Forecast

Almanac

Astronomy

Feb. 13, 2016 Rise Set
Actual Time
Civil Twilight
Nautical Twilight
Astronomical Twilight
Moon
Length of Visible Light
Length of Day
Tomorrow will be .
, % of the Moon is Illuminated

Today's Extremes

State Highs State Lows

Community

WunderPhotos

Upload Photos

1,892,632 photos uploaded!

WunderBlog® & News

Nearby

Air Quality

  Air Quality AQ Index Pollutant
Not available.

Snow Depth

Station Depth Elevation

Earthquake Activity

City Distance Mag. Time & Date
Minimum magnitude displayed is 2.5.

Coastal Water Temperatures

Place Temperature

Stations

Nearby Weather Stations

Station Location Temp. Windchill Dew Point Humidity Wind Precip. Elev Updated Type
                   

Watches & Warnings

Wind Chill Advisory
Issued: 10:57 AM EST Feb. 13, 2016 – National Weather Service

... Wind Chill Advisory remains in effect until 9 am EST Sunday...

* wind chill... as low as 14 below due to temperatures 4 below to
12 above zero... and winds west 10 to 20 mph with gusts up to
25 mph.

* Impacts... frost bite and hypothermia are possible if
precautions are not taken.